Latest Weather Observations for St Lawrence

IDQ60801

Issued at 8:31 am EST Saturday 13 February 2016 (issued every 30 minutes, with the page automatically refreshed every 10 minutes)

About weather observations | Map of weather stations | Latest weather observations for QLD | Other Formats
Station Details ID: 033210 Name: ST LAWRENCE Lat: -22.35 Lon: 149.52 Height: 9.19 m
Data from the previous 72 hours. | See also: Recent months at St Lawrence
Date/Time
EST
Temp
°C
App
Temp
°C
Dew
Point
Rel
Hum
%
Delta-T
°C
Wind Press
QNH
hPa
Press
MSL
hPa
Rain
since 9 am
mm
Dir
 
Spd
km/h
Gust
km/h
Spd
kts
Gust
kts
13/08:30am 26.4 26.7 18.8 63 4.9 S 15 24 8 13 1009.7 1009.6 0.0
13/08:00am 25.8 26.4 18.5 64 4.6 S 13 20 7 11 1009.5 1009.4 0.0
13/07:30am 25.1 25.7 17.8 64 4.6 S 11 17 6 9 1009.5 1009.4 0.0
13/07:00am 24.3 26.2 18.9 72 3.4 S 7 11 4 6 1009.4 1009.3 0.0
13/06:30am 23.4 24.9 18.9 76 2.9 S 9 13 5 7 1008.8 1008.7 0.0
13/06:00am 22.4 24.5 19.4 83 1.9 S 7 11 4 6 1008.6 1008.5 0.0
13/05:30am 22.5 24.7 19.7 84 1.8 S 7 13 4 7 1008.2 1008.1 0.0
13/05:00am 22.7 25.0 19.9 84 1.8 S 7 11 4 6 1008.0 1007.9 0.0
13/04:30am 22.7 24.7 19.9 84 1.8 SSW 9 9 5 5 1007.8 1007.7 0.0
13/04:00am 22.9 25.5 20.1 84 1.8 S 6 9 3 5 1007.6 1007.5 0.0
13/03:30am 22.9 25.5 20.1 84 1.8 S 6 9 3 5 1007.7 1007.6 0.0
13/03:00am 22.9 25.4 19.9 83 1.9 SSW 6 7 3 4 1007.9 1007.8 0.0
13/02:30am 23.3 25.8 19.9 81 2.2 S 6 7 3 4 1007.9 1007.8 0.0
13/02:00am 23.1 25.5 19.7 81 2.2 SSW 6 9 3 5 1008.3 1008.2 0.0
13/01:30am 23.3 26.8 19.5 79 2.4 CALM 0 0 0 0 1008.6 1008.5 0.0
13/01:00am 23.8 26.3 19.1 75 3.0 SW 4 7 2 4 1008.9 1008.8 0.0
13/12:30am 24.2 26.6 19.7 76 2.9 SW 6 7 3 4 1009.2 1009.1 0.0
13/12:00am 24.7 28.3 19.8 74 3.2 CALM 0 0 0 0 1009.6 1009.5 0.0
 
Date/Time
EST
Temp
°C
App
Temp
°C
Dew
Point
Rel
Hum
%
Delta-T
°C
Wind Press
QNH
hPa
Press
MSL
hPa
Rain
since 9 am
mm
Dir
 
Spd
km/h
Gust
km/h
Spd
kts
Gust
kts
12/11:30pm 25.6 27.8 19.3 68 4.0 SSE 6 7 3 4 1010.0 1009.9 0.0
12/11:00pm 25.7 27.9 19.3 67 4.1 SE 6 9 3 5 1010.2 1010.1 0.0
12/10:30pm 25.5 28.2 19.4 69 3.9 SSE 4 9 2 5 1010.2 1010.1 0.0
12/10:00pm 26.2 29.1 19.1 65 4.6 SSE 2 6 1 3 1010.1 1010.0 0.0
12/09:30pm 26.5 28.8 19.4 65 4.6 S 6 9 3 5 1009.9 1009.8 0.0
12/09:00pm 26.7 30.3 20.5 69 4.1 SW 2 9 1 5 1009.6 1009.5 0.0
12/08:30pm 27.3 30.1 20.4 66 4.5 E 6 11 3 6 1008.9 1008.8 0.0
12/08:00pm 27.9 30.0 20.2 63 5.1 E 9 17 5 9 1008.4 1008.3 0.0
12/07:30pm 28.6 30.4 18.4 54 6.5 E 6 9 3 5 1008.1 1008.0 0.0
12/07:00pm 29.3 30.7 17.8 50 7.3 E 7 9 4 5 1007.8 1007.7 0.0
12/06:30pm 30.6 31.5 16.6 43 8.8 SE 7 11 4 6 1007.3 1007.2 0.0
12/06:00pm 31.8 32.3 16.5 39 9.6 SE 9 13 5 7 1007.2 1007.1 0.0
12/05:30pm 32.5 32.4 15.9 36 10.4 SSE 11 19 6 10 1007.0 1006.9 0.0
12/05:00pm 32.8 32.4 15.3 34 10.9 SE 11 17 6 9 1006.8 1006.7 0.0
12/04:30pm 32.4 32.5 15.4 36 10.6 SSW 9 17 5 9 1006.7 1006.6 0.0
12/04:00pm 32.8 31.0 13.4 30 11.7 SE 15 26 8 14 1006.7 1006.6 0.0
12/03:30pm 33.1 31.8 13.7 31 11.8 SSE 13 24 7 13 1006.8 1006.7 0.0
12/03:00pm 32.8 31.7 15.3 34 10.9 SE 15 24 8 13 1007.0 1006.9 0.0
12/02:30pm 33.0 32.7 15.5 35 10.9 SSE 11 17 6 9 1007.2 1007.1 0.0
12/02:00pm 32.2 31.8 16.1 38 10.1 SSE 13 24 7 13 1007.6 1007.5 0.0
12/01:30pm 32.3 32.8 17.4 41 9.5 S 11 22 6 12 1007.9 1007.8 0.0
12/01:00pm 31.6 32.2 16.7 40 9.4 SSE 9 19 5 10 1008.3 1008.2 0.0
12/12:30pm 30.9 31.5 17.6 45 8.5 SSW 11 22 6 12 1008.6 1008.5 0.0
12/12:00pm 30.5 31.6 17.9 47 8.1 S 9 20 5 11 1009.1 1009.0 0.0
12/11:30am 30.1 30.7 18.5 49 7.5 SE 13 22 7 12 1009.6 1009.5 0.0
12/11:00am 29.7 30.3 17.8 48 7.6 SSE 11 19 6 10 1010.1 1010.0 0.0
12/10:30am 28.6 29.6 18.7 55 6.4 SSE 11 17 6 9 1010.3 1010.2 0.0
12/10:00am 28.6 30.4 19.5 58 5.9 S 9 19 5 10 1010.5 1010.4 0.0
12/09:30am 27.4 28.0 18.7 59 5.6 S 13 24 7 13 1010.9 1010.8 0.0
12/09:00am 26.8 26.6 18.6 60 5.2 SSE 17 28 9 15 1011.0 1010.9 0.0
12/08:30am 26.3 26.7 18.9 63 4.7 S 15 22 8 12 1011.1 1011.0 0.0
12/08:00am 25.8 25.8 19.0 66 4.4 S 17 26 9 14 1010.9 1010.8 0.0
12/07:30am 25.4 25.7 18.8 67 4.2 S 15 22 8 12 1010.7 1010.6 0.0
12/07:00am 24.6 25.5 19.2 72 3.5 S 13 19 7 10 1010.6 1010.5 0.0
12/06:30am 23.8 25.2 19.5 77 2.8 SSW 11 17 6 9 1010.2 1010.1 0.0
12/06:00am 23.4 25.4 20.0 81 2.2 SSW 9 15 5 8 1009.9 1009.8 0.0
12/05:30am 23.8 25.8 19.9 79 2.5 S 9 13 5 7 1009.7 1009.6 0.0
12/05:00am 24.1 26.4 20.6 81 2.3 S 9 15 5 8 1009.6 1009.5 0.0
12/04:30am 23.8 27.2 20.9 84 1.9 S 4 9 2 5 1009.5 1009.4 0.0
12/04:00am 23.9 27.3 21.0 84 1.9 SSW 4 7 2 4 1009.3 1009.2 0.0
12/03:30am 24.0 27.0 20.9 83 2.0 SSW 6 7 3 4 1009.2 1009.1 0.0
12/03:00am 24.4 27.3 21.1 82 2.2 SSW 7 11 4 6 1009.0 1008.9 0.0
12/02:30am 24.5 27.5 20.8 80 2.4 S 6 9 3 5 1009.1 1009.0 0.0
12/02:00am 24.8 27.7 20.7 78 2.7 S 6 9 3 5 1009.3 1009.2 0.0
12/01:30am 25.2 28.3 21.1 78 2.7 SSE 6 9 3 5 1009.4 1009.3 0.0
12/01:00am 25.0 28.1 21.1 79 2.6 S 6 7 3 4 1009.7 1009.6 0.0
12/12:30am 24.7 28.6 21.2 81 2.3 SSW 2 7 1 4 1010.1 1010.0 0.0
12/12:00am 24.7 28.9 21.0 80 2.4 CALM 0 0 0 0 1010.2 1010.1 0.0
 
Date/Time
EST
Temp
°C
App
Temp
°C
Dew
Point
Rel
Hum
%
Delta-T
°C
Wind Press
QNH
hPa
Press
MSL
hPa
Rain
since 9 am
mm
Dir
 
Spd
km/h
Gust
km/h
Spd
kts
Gust
kts
11/11:30pm 24.8 29.0 20.9 79 2.6 CALM 0 0 0 0 1010.4 1010.3 0.0
11/11:00pm 25.2 28.9 20.0 73 3.4 CALM 0 0 0 0 1010.4 1010.3 0.0
11/10:30pm 25.8 28.3 19.9 70 3.8 E 6 7 3 4 1010.3 1010.2 0.0
11/10:00pm 26.2 28.0 19.6 67 4.3 E 9 15 5 8 1010.3 1010.2 0.0
11/09:30pm 26.0 28.5 20.3 71 3.7 ESE 7 11 4 6 1010.2 1010.1 0.0
11/09:00pm 25.9 30.3 21.3 76 3.0 CALM 0 6 0 3 1010.1 1010.0 0.0
11/08:30pm 26.1 30.3 20.9 73 3.4 CALM 0 0 0 0 1009.8 1009.7 0.0
11/08:00pm 26.4 29.7 21.4 74 3.3 WNW 6 7 3 4 1009.5 1009.4 0.0
11/07:30pm 26.7 30.0 21.5 73 3.5 NNE 6 7 3 4 1009.2 1009.1 0.0
11/07:00pm 26.9 29.6 21.4 72 3.7 NE 9 13 5 7 1008.7 1008.6 0.0
11/06:30pm 27.6 29.3 20.9 67 4.4 NE 13 20 7 11 1008.4 1008.3 0.0
11/06:00pm 28.6 29.6 21.1 64 5.0 NE 17 24 9 13 1008.1 1008.0 0.0
11/05:30pm 29.2 30.0 21.4 63 5.2 NNE 19 28 10 15 1007.8 1007.7 0.0
11/05:00pm 29.8 30.2 20.6 57 6.1 NE 19 28 10 15 1007.5 1007.4 0.0
11/04:30pm 31.6 31.6 18.9 47 8.3 NNE 17 22 9 12 1007.0 1006.9 0.0
11/04:00pm 32.1 32.9 17.2 41 9.5 SE 9 15 5 8 1006.9 1006.8 0.0
11/03:30pm 31.0 32.1 17.0 43 8.9 SE 7 11 4 6 1006.9 1006.8 0.0
11/03:00pm 31.6 33.0 17.9 44 8.8 NNE 7 13 4 7 1007.2 1007.1 0.0
11/02:30pm 31.7 32.5 17.2 42 9.2 SSE 9 17 5 9 1007.5 1007.4 0.0
11/02:00pm 31.7 31.9 17.6 43 9.0 SSE 13 20 7 11 1008.0 1007.9 0.0
11/01:30pm 31.3 32.0 17.9 44 8.6 SSE 11 17 6 9 1008.3 1008.2 0.0
11/01:00pm 30.9 31.6 17.9 45 8.3 SE 11 20 6 11 1008.7 1008.6 0.0
11/12:30pm 30.7 31.2 18.4 47 7.9 SSE 13 26 7 14 1009.1 1009.0 0.0
11/12:00pm 30.1 30.7 18.5 49 7.5 SSE 13 20 7 11 1009.4 1009.3 0.0
11/11:30am 30.1 31.4 20.1 55 6.6 SSE 13 20 7 11 1010.0 1009.9 0.0
11/11:00am 28.6 29.9 19.2 56 6.1 SSE 11 19 6 10 1010.3 1010.2 0.0
11/10:30am 28.6 30.7 20.1 60 5.6 SSE 9 20 5 11 1010.6 1010.5 0.0
11/10:00am 27.5 28.7 19.8 63 5.0 S 13 24 7 13 1010.7 1010.6 0.0
11/09:30am 27.0 28.1 19.6 64 4.8 SSE 13 19 7 10 1010.7 1010.6 0.0
11/09:00am 26.9 28.1 20.0 66 4.5 S 13 22 7 12 1010.8 1010.7 0.0
11/08:30am 26.5 27.9 20.3 68 4.1 SSE 13 20 7 11 1010.7 1010.6 0.0
11/08:00am 25.8 26.9 20.4 72 3.5 S 15 26 8 14 1010.7 1010.6 0.0
11/07:30am 25.1 26.5 20.4 75 3.1 S 13 19 7 10 1010.5 1010.4 0.0
11/07:00am 24.3 25.7 20.4 79 2.5 S 13 19 7 10 1010.2 1010.1 0.0
11/06:30am 24.2 26.3 20.9 82 2.2 S 11 19 6 10 1010.0 1009.9 0.0
11/06:00am 24.0 26.0 20.7 82 2.2 S 11 17 6 9 1009.5 1009.4 0.0
11/05:30am 24.2 26.7 21.1 83 2.0 S 9 15 5 8 1009.4 1009.3 0.0
11/05:00am 24.3 26.9 21.2 83 2.0 S 9 13 5 7 1009.0 1008.9 0.0
11/04:30am 24.1 27.5 21.6 86 1.7 SSW 6 9 3 5 1008.9 1008.8 0.0
11/04:00am 23.9 28.3 21.4 86 1.7 CALM 0 0 0 0 1008.7 1008.6 0.0
11/03:30am 23.8 27.9 21.5 87 1.5 SSW 2 6 1 3 1008.6 1008.5 0.0
11/03:00am 23.3 26.4 21.0 87 1.5 S 6 7 3 4 1008.7 1008.6 0.0
11/02:30am 23.5 26.8 20.8 85 1.8 S 4 7 2 4 1008.7 1008.6 0.0
11/02:00am 23.6 27.4 20.9 85 1.8 S 2 6 1 3 1008.9 1008.8 0.0
11/01:30am 23.9 27.3 21.0 84 1.9 S 4 7 2 4 1008.9 1008.8 0.0
11/01:00am 24.2 27.2 20.9 82 2.2 SSW 6 9 3 5 1009.3 1009.2 0.0
11/12:30am 24.2 27.5 20.7 81 2.3 S 4 7 2 4 1009.5 1009.4 0.0
11/12:00am 24.7 27.5 20.4 77 2.8 ESE 6 9 3 5 1009.9 1009.8 0.0
 
Date/Time
EST
Temp
°C
App
Temp
°C
Dew
Point
Rel
Hum
%
Delta-T
°C
Wind Press
QNH
hPa
Press
MSL
hPa
Rain
since 9 am
mm
Dir
 
Spd
km/h
Gust
km/h
Spd
kts
Gust
kts
10/11:30pm 24.8 27.4 20.5 77 2.8 SE 7 11 4 6 1010.3 1010.2 0.0
10/11:00pm 24.4 27.4 20.1 77 2.8 SSE 4 7 2 4 1010.5 1010.4 0.0
10/10:30pm 25.3 28.2 19.9 72 3.5 SE 4 7 2 4 1010.6 1010.5 0.0
10/10:00pm 25.6 27.9 19.9 70 3.7 ESE 7 11 4 6 1010.7 1010.6 0.0
10/09:30pm 25.9 28.0 20.2 71 3.7 ESE 9 15 5 8 1010.6 1010.5 0.0
10/09:00pm 25.2 28.5 21.9 82 2.2 ESE 7 9 4 5 1010.4 1010.3 0.0
10/08:30pm 26.0 29.6 22.1 79 2.6 WNW 6 7 3 4 1009.9 1009.8 0.0
10/08:00pm 26.3 29.7 21.7 76 3.1 WNW 6 7 3 4 1009.7 1009.6 0.0
10/07:30pm 26.8 30.9 22.2 76 3.1 N 4 6 2 3 1009.3 1009.2 0.0
10/07:00pm 27.3 30.2 21.8 72 3.7 NNE 9 13 5 7 1009.0 1008.9 0.0
10/06:30pm 27.8 30.5 21.3 67 4.3 NNE 9 15 5 8 1008.5 1008.4 0.0
10/06:00pm 28.4 29.7 20.2 61 5.4 NE 13 19 7 10 1008.3 1008.2 0.0
10/05:30pm 28.9 30.6 20.9 62 5.3 NNE 13 19 7 10 1008.0 1007.9 0.0
10/05:00pm 29.4 31.0 21.4 62 5.4 NNE 15 19 8 10 1007.8 1007.7 0.0
10/04:30pm 29.4 30.8 21.9 64 5.1 NNE 17 22 9 12 1007.7 1007.6 0.0
10/04:00pm 29.1 29.6 20.8 61 5.5 NE 19 24 10 13 1007.9 1007.8 0.0
10/03:30pm 29.9 31.5 22.1 63 5.3 NNE 17 22 9 12 1007.6 1007.5 0.0
10/03:00pm 30.7 33.1 20.0 52 7.1 ENE 7 26 4 14 1007.7 1007.6 0.0
10/02:30pm 31.2 32.4 18.2 46 8.4 S 9 15 5 8 1007.9 1007.8 0.0
10/02:00pm 31.8 32.7 18.4 45 8.7 S 11 19 6 10 1008.2 1008.1 0.0
10/01:30pm 30.5 32.0 18.9 50 7.5 SSW 9 17 5 9 1008.7 1008.6 0.0
10/01:00pm 29.7 31.5 18.8 52 7.1 SSE 7 19 4 10 1009.1 1009.0 0.0
10/12:30pm 29.4 30.1 18.8 53 6.8 SSE 13 22 7 12 1009.6 1009.5 0.0
10/12:00pm 28.7 29.9 19.1 56 6.2 SSE 11 19 6 10 1010.1 1010.0 0.0
10/11:30am 29.6 30.8 19.9 56 6.4 SE 13 24 7 13 1010.5 1010.4 0.0
10/11:00am 28.3 28.9 18.7 56 6.2 SE 13 20 7 11 1010.7 1010.6 0.0
10/10:30am 27.8 28.6 19.1 59 5.6 SSE 13 22 7 12 1010.8 1010.7 0.0
10/10:00am 27.3 27.7 18.9 60 5.4 SSE 15 24 8 13 1010.9 1010.8 0.0
10/09:30am 26.9 28.1 19.8 65 4.6 S 13 20 7 11 1011.0 1010.9 0.0
10/09:00am 25.7 25.8 18.4 64 4.6 S 15 24 8 13 1011.2 1011.1 0.0

Other Formats:

Comma delimited format used in spreadsheet applications
http://www.bom.gov.au/fwo/IDQ60801/IDQ60801.95369.axf

JavaScript Object Notation format (JSON) in row-major order
http://www.bom.gov.au/fwo/IDQ60801/IDQ60801.95369.json